Time;durP1;ratioP1;P1;durP2;ratioP2;P2;SDS_P1;SDS_P2;PMS_P1;PMS_P2;Temp;Humidity;BMP_temperature;BMP_pressure;BME280_temperature;BME280_humidity;BME280_pressure;Samples;Min_cycle;Max_cycle;Signal;HPM_P1;HPM_P2
2022/05/17 00:00:15;;;;;;;4.40;4.07;;;16.70;77.50;;;;;;4954757;29;20471;-73
2022/05/17 00:02:41;;;;;;;5.43;3.93;;;16.70;77.20;;;;;;4955716;29;20457;-75
2022/05/17 00:05:10;;;;;;;6.73;3.77;;;16.70;78.10;;;;;;4957229;28;20457;-75
2022/05/17 00:07:38;;;;;;;6.23;4.17;;;16.70;78.10;;;;;;4958910;28;20506;-74
2022/05/17 00:10:06;;;;;;;4.13;3.67;;;16.70;78.10;;;;;;4941100;29;20871;-75
2022/05/17 00:12:33;;;;;;;5.80;3.90;;;16.70;77.30;;;;;;4939117;29;20429;-75
2022/05/17 00:15:00;;;;;;;4.80;4.30;;;16.70;77.30;;;;;;4938824;29;20545;-75
2022/05/17 00:17:27;;;;;;;8.10;4.00;;;16.60;77.30;;;;;;4939079;29;20557;-74
2022/05/17 00:19:54;;;;;;;5.20;4.00;;;16.50;77.90;;;;;;4938981;29;20455;-75
2022/05/17 00:22:21;;;;;;;6.10;4.00;;;16.50;77.90;;;;;;4938876;29;20468;-74
2022/05/17 00:24:49;;;;;;;6.10;3.97;;;16.50;78.40;;;;;;4942265;29;20454;-75
2022/05/17 00:27:16;;;;;;;5.13;4.20;;;16.40;78.80;;;;;;4941779;29;20952;-75
2022/05/17 00:29:43;;;;;;;6.67;4.40;;;16.40;79.20;;;;;;4940000;29;20481;-75
2022/05/17 00:32:10;;;;;;;6.33;4.27;;;16.40;80.20;;;;;;4940404;29;20450;-75
2022/05/17 00:34:37;;;;;;;9.90;4.30;;;16.40;80.40;;;;;;4944182;28;20436;-74
2022/05/17 00:37:04;;;;;;;5.30;4.10;;;16.40;80.30;;;;;;4940890;29;20546;-76
2022/05/17 00:39:31;;;;;;;5.70;3.80;;;16.40;80.40;;;;;;4939902;29;20485;-74
2022/05/17 00:41:59;;;;;;;4.53;4.13;;;16.30;80.40;;;;;;4941555;29;20525;-75
2022/05/17 00:44:45;;;;;;;5.37;3.90;;;16.30;80.50;;;;;;4948277;29;20522;-74
2022/05/17 00:47:20;;;;;;;6.27;4.47;;;16.30;81.50;;;;;;4946593;29;20413;-74
2022/05/17 00:49:52;;;;;;;7.13;4.43;;;16.20;81.40;;;;;;4950319;29;20540;-74
2022/05/17 00:52:24;;;;;;;4.70;4.23;;;16.20;81.90;;;;;;4945971;29;20427;-75
2022/05/17 00:54:53;;;;;;;6.90;4.60;;;16.20;81.80;;;;;;4939147;29;20537;-74
2022/05/17 00:57:29;;;;;;;5.53;3.80;;;16.10;82.30;;;;;;4939241;29;20460;-74
2022/05/17 01:00:00;;;;;;;8.00;4.60;;;16.10;82.60;;;;;;4939614;29;20482;-74
2022/05/17 01:02:28;;;;;;;5.00;3.87;;;16.10;82.80;;;;;;4939294;29;20498;-74
2022/05/17 01:04:55;;;;;;;6.40;3.90;;;16.10;83.00;;;;;;4939537;29;21104;-73
2022/05/17 01:07:26;;;;;;;6.67;4.43;;;16.10;83.00;;;;;;4950201;29;20429;-74
2022/05/17 01:09:53;;;;;;;4.70;4.00;;;16.10;84.00;;;;;;4960074;29;20490;-73
2022/05/17 01:12:20;;;;;;;6.83;4.20;;;16.10;82.90;;;;;;4961937;28;20473;-73
2022/05/17 01:15:00;;;;;;;5.50;3.60;;;16.00;83.30;;;;;;4961966;28;20419;-73
2022/05/17 01:17:29;;;;;;;8.20;4.40;;;15.90;83.90;;;;;;4954872;29;20443;-75
2022/05/17 01:19:56;;;;;;;9.00;4.80;;;15.90;85.50;;;;;;4950642;29;20498;-74
2022/05/17 01:22:24;;;;;;;6.60;4.90;;;15.90;85.80;;;;;;4948931;29;20465;-74
2022/05/17 01:24:51;;;;;;;6.17;4.60;;;15.90;85.90;;;;;;4940094;29;20865;-75
2022/05/17 01:27:25;;;;;;;8.47;4.03;;;15.90;85.90;;;;;;4938533;29;20460;-73
2022/05/17 01:29:54;;;;;;;4.80;4.03;;;15.70;85.70;;;;;;4938365;29;20461;-74
2022/05/17 01:32:22;;;;;;;5.40;4.73;;;15.70;86.50;;;;;;4939095;29;20429;-74
2022/05/17 01:34:50;;;;;;;10.47;5.20;;;15.60;87.10;;;;;;4941476;29;20455;-75
2022/05/17 01:37:18;;;;;;;7.17;4.50;;;15.50;88.30;;;;;;4938056;29;20531;-74
2022/05/17 01:39:46;;;;;;;5.80;4.97;;;15.40;89.50;;;;;;4938028;29;20448;-74
2022/05/17 01:42:13;;;;;;;6.10;4.23;;;15.40;89.80;;;;;;4938105;29;20469;-73
2022/05/17 01:44:43;;;;;;;6.13;5.00;;;15.40;89.70;;;;;;4937851;29;20432;-73
2022/05/17 01:47:10;;;;;;;5.50;4.77;;;15.30;90.30;;;;;;4937565;29;20585;-74
2022/05/17 01:49:37;;;;;;;5.40;4.90;;;15.30;90.60;;;;;;4937287;29;20461;-73
2022/05/17 01:52:05;;;;;;;6.33;4.97;;;15.20;91.00;;;;;;4937844;29;20425;-73
2022/05/17 01:54:32;;;;;;;5.33;4.93;;;15.20;91.60;;;;;;4942077;29;20458;-74
2022/05/17 01:57:00;;;;;;;8.20;5.50;;;15.10;91.50;;;;;;4937577;29;20464;-74
2022/05/17 01:59:27;;;;;;;8.50;5.50;;;15.10;91.90;;;;;;4937280;29;20884;-74
2022/05/17 02:01:54;;;;;;;7.20;5.10;;;15.10;92.20;;;;;;4937415;29;20479;-73
2022/05/17 02:04:21;;;;;;;8.77;4.93;;;15.10;92.80;;;;;;4938085;29;20945;-74
2022/05/17 02:06:48;;;;;;;4.97;4.50;;;15.10;92.80;;;;;;4937776;29;20429;-74
2022/05/17 02:09:14;;;;;;;8.97;5.27;;;15.00;93.10;;;;;;4937597;29;20876;-74
2022/05/17 02:11:41;;;;;;;10.50;5.20;;;15.00;93.30;;;;;;4937901;29;20515;-74
2022/05/17 02:14:10;;;;;;;8.00;5.10;;;15.00;93.30;;;;;;4938169;29;20549;-73
2022/05/17 02:16:37;;;;;;;8.10;5.50;;;15.00;93.50;;;;;;4938113;29;20795;-74
2022/05/17 02:19:06;;;;;;;5.70;4.93;;;15.00;93.30;;;;;;4937449;29;20543;-75
2022/05/17 02:21:33;;;;;;;7.97;4.83;;;15.00;93.30;;;;;;4938144;29;20504;-75
2022/05/17 02:24:00;;;;;;;8.93;5.10;;;14.90;93.30;;;;;;4937865;29;20914;-74
2022/05/17 02:26:27;;;;;;;10.20;5.30;;;14.90;93.50;;;;;;4937722;29;20461;-75
2022/05/17 02:28:54;;;;;;;5.90;4.80;;;14.90;93.70;;;;;;4937105;29;20455;-74
2022/05/17 02:31:22;;;;;;;6.03;4.63;;;14.90;93.40;;;;;;4936784;29;20435;-75
2022/05/17 02:33:49;;;;;;;5.63;4.43;;;14.90;93.70;;;;;;4937628;29;20461;-75
2022/05/17 02:36:15;;;;;;;7.13;4.60;;;15.00;93.40;;;;;;4937611;29;20461;-75
2022/05/17 02:38:43;;;;;;;9.60;5.00;;;15.00;93.30;;;;;;4937607;29;20518;-74
2022/05/17 02:41:10;;;;;;;7.50;4.97;;;15.00;93.30;;;;;;4936827;29;20466;-75
2022/05/17 02:43:38;;;;;;;5.37;4.87;;;15.00;93.30;;;;;;4937438;29;20458;-74
2022/05/17 02:46:05;;;;;;;6.00;5.17;;;14.90;93.20;;;;;;4938869;29;20458;-75
2022/05/17 02:48:33;;;;;;;5.70;4.60;;;14.90;93.20;;;;;;4937881;29;21054;-74
2022/05/17 02:51:08;;;;;;;6.00;4.00;;;14.90;93.30;;;;;;4937887;29;20462;-74
2022/05/17 02:53:34;;;;;;;6.83;5.00;;;14.90;92.90;;;;;;4937860;29;20436;-75
2022/05/17 02:56:01;;;;;;;4.80;4.40;;;14.80;92.60;;;;;;4937879;29;20479;-75
2022/05/17 02:58:28;;;;;;;6.20;4.83;;;14.70;93.00;;;;;;4938839;29;20559;-74
2022/05/17 03:00:55;;;;;;;4.93;4.47;;;14.70;93.00;;;;;;4939146;29;20458;-75
2022/05/17 03:03:22;;;;;;;4.93;4.50;;;14.60;93.20;;;;;;4944606;29;20585;-74
2022/05/17 03:05:50;;;;;;;5.07;4.47;;;14.60;93.50;;;;;;4946317;29;20425;-74
2022/05/17 03:08:17;;;;;;;4.80;4.40;;;14.60;93.90;;;;;;4954312;29;20437;-75
2022/05/17 03:10:44;;;;;;;5.13;4.47;;;14.50;94.10;;;;;;4949827;29;20454;-75
2022/05/17 03:13:11;;;;;;;5.00;4.60;;;14.50;94.00;;;;;;4939114;29;20458;-74
2022/05/17 03:15:38;;;;;;;6.20;5.10;;;14.40;94.30;;;;;;4938468;29;20977;-75
2022/05/17 03:18:05;;;;;;;5.53;5.03;;;14.40;95.00;;;;;;4941244;29;20510;-75
2022/05/17 03:20:32;;;;;;;6.57;4.93;;;14.30;95.20;;;;;;4950061;29;20542;-75
2022/05/17 03:23:00;;;;;;;7.40;4.50;;;14.30;95.60;;;;;;4954107;29;20476;-75
2022/05/17 03:25:27;;;;;;;5.37;4.73;;;14.30;96.60;;;;;;4959381;28;20437;-74
2022/05/17 03:27:55;;;;;;;5.00;4.50;;;14.30;96.70;;;;;;4944113;29;20458;-73
2022/05/17 03:30:22;;;;;;;5.30;4.70;;;14.40;96.60;;;;;;4937190;29;20490;-74
2022/05/17 03:32:49;;;;;;;5.57;4.63;;;14.40;96.20;;;;;;4936909;29;20784;-73
2022/05/17 03:35:16;;;;;;;6.63;4.87;;;14.30;96.10;;;;;;4937333;29;20425;-74
2022/05/17 03:37:43;;;;;;;7.17;4.83;;;14.30;96.30;;;;;;4937025;29;20473;-74
2022/05/17 03:40:12;;;;;;;7.77;6.20;;;14.30;96.30;;;;;;4936458;29;20453;-75
2022/05/17 03:42:39;;;;;;;5.97;5.07;;;14.30;96.40;;;;;;4939938;29;20498;-74
2022/05/17 03:45:10;;;;;;;9.70;5.57;;;14.30;96.60;;;;;;4940432;29;20460;-75
2022/05/17 03:47:37;;;;;;;5.83;5.10;;;14.30;96.70;;;;;;4940131;29;20982;-75
2022/05/17 03:50:04;;;;;;;6.93;4.97;;;14.40;96.70;;;;;;4939710;29;20556;-74
2022/05/17 03:52:32;;;;;;;5.03;4.60;;;14.40;96.70;;;;;;4940900;29;20436;-75
2022/05/17 03:55:01;;;;;;;6.20;5.10;;;14.40;96.50;;;;;;4940200;29;20462;-75
2022/05/17 03:57:30;;;;;;;5.60;5.00;;;14.50;96.60;;;;;;4939920;29;20490;-75
2022/05/17 03:59:57;;;;;;;5.93;5.27;;;14.50;96.30;;;;;;4939085;29;20825;-74
2022/05/17 04:02:24;;;;;;;5.43;4.37;;;14.60;95.50;;;;;;4939535;29;20497;-74
2022/05/17 04:04:53;;;;;;;7.20;4.43;;;14.60;95.00;;;;;;4939778;29;20454;-75
2022/05/17 04:07:20;;;;;;;5.07;4.60;;;14.60;94.80;;;;;;4939557;29;20428;-74
2022/05/17 04:09:47;;;;;;;8.37;5.47;;;14.70;94.60;;;;;;4938618;29;20457;-75
2022/05/17 04:12:15;;;;;;;7.00;5.23;;;14.70;94.30;;;;;;4944053;29;20904;-74
2022/05/17 04:14:43;;;;;;;11.60;5.50;;;14.90;93.70;;;;;;4944187;29;20481;-74
2022/05/17 04:17:10;;;;;;;7.60;5.80;;;14.90;92.60;;;;;;4940186;29;20421;-75
2022/05/17 04:19:39;;;;;;;9.23;5.70;;;14.80;92.50;;;;;;4943823;29;20484;-75
2022/05/17 04:22:07;;;;;;;6.17;4.90;;;14.70;92.20;;;;;;4939641;29;20486;-74
2022/05/17 04:24:34;;;;;;;7.97;5.40;;;14.70;93.10;;;;;;4944464;29;20470;-73
2022/05/17 04:27:01;;;;;;;5.93;5.03;;;14.80;92.90;;;;;;4941044;29;20459;-75
2022/05/17 04:29:28;;;;;;;8.87;5.30;;;15.00;91.50;;;;;;4938924;29;20821;-75
2022/05/17 04:31:56;;;;;;;5.47;4.50;;;14.90;90.70;;;;;;4939353;29;20454;-75
2022/05/17 04:34:24;;;;;;;5.33;4.83;;;15.00;90.80;;;;;;4939188;29;20484;-74
2022/05/17 04:36:50;;;;;;;10.50;5.10;;;15.10;90.90;;;;;;4939942;29;20448;-75
2022/05/17 04:39:18;;;;;;;8.73;5.57;;;15.30;89.80;;;;;;4938910;29;20569;-75
2022/05/17 04:41:44;;;;;;;5.63;5.13;;;15.40;86.90;;;;;;4938991;29;20505;-75
2022/05/17 04:44:11;;;;;;;6.67;4.80;;;15.50;84.10;;;;;;4939283;29;20458;-74
2022/05/17 04:46:38;;;;;;;6.20;5.17;;;15.60;84.30;;;;;;4938773;29;20477;-75
2022/05/17 04:49:07;;;;;;;5.93;4.60;;;15.80;82.60;;;;;;4938547;29;20456;-74
2022/05/17 04:51:35;;;;;;;5.90;4.70;;;16.20;80.30;;;;;;4938439;29;20473;-74
2022/05/17 04:54:02;;;;;;;4.90;4.47;;;16.60;74.00;;;;;;4938735;29;21175;-74
2022/05/17 04:56:29;;;;;;;4.30;3.43;;;17.10;71.90;;;;;;4938896;29;20501;-75
2022/05/17 04:58:56;;;;;;;7.77;4.20;;;17.90;67.80;;;;;;4939585;29;21138;-75
2022/05/17 05:01:23;;;;;;;4.87;4.17;;;18.30;60.90;;;;;;4939615;29;20549;-75
2022/05/17 05:03:50;;;;;;;8.60;4.70;;;18.70;60.90;;;;;;4937700;29;20498;-74
2022/05/17 05:06:18;;;;;;;4.13;3.70;;;19.30;57.90;;;;;;4937845;29;20472;-74
2022/05/17 05:08:45;;;;;;;6.90;4.70;;;19.40;55.50;;;;;;4938007;29;20969;-75
2022/05/17 05:11:12;;;;;;;5.37;4.40;;;18.80;57.50;;;;;;4938537;29;20437;-75
2022/05/17 05:13:38;;;;;;;7.47;4.13;;;18.50;58.80;;;;;;4939064;29;20520;-75
2022/05/17 05:16:10;;;;;;;5.07;3.97;;;18.80;59.30;;;;;;4940077;29;20485;-76
2022/05/17 05:18:37;;;;;;;4.00;3.60;;;19.40;58.00;;;;;;4940013;29;20463;-74
2022/05/17 05:21:06;;;;;;;4.10;3.80;;;20.30;52.60;;;;;;4938387;29;20452;-75
2022/05/17 05:23:34;;;;;;;8.70;3.67;;;20.80;51.20;;;;;;4943310;29;20502;-75
2022/05/17 05:26:01;;;;;;;6.37;3.43;;;21.70;48.60;;;;;;4930040;29;20528;-75
2022/05/17 05:28:28;;;;;;;4.20;3.53;;;22.20;45.70;;;;;;4943666;29;20553;-75
2022/05/17 05:30:55;;;;;;;5.60;4.10;;;22.40;44.80;;;;;;4955483;29;20431;-75
2022/05/17 05:33:22;;;;;;;6.00;3.70;;;22.70;43.90;;;;;;4958641;29;20458;-75
2022/05/17 05:35:49;;;;;;;7.83;4.50;;;22.90;43.90;;;;;;4953855;29;20479;-74
2022/05/17 05:38:16;;;;;;;4.00;3.60;;;23.00;42.70;;;;;;4943400;29;20487;-75
2022/05/17 05:40:45;;;;;;;3.67;3.40;;;22.70;43.50;;;;;;4937949;29;20481;-76
2022/05/17 05:43:12;;;;;;;6.80;3.80;;;22.80;43.70;;;;;;4939299;29;20464;-75
2022/05/17 05:45:39;;;;;;;5.20;3.80;;;22.80;42.40;;;;;;4938005;29;20876;-76
2022/05/17 05:48:06;;;;;;;6.30;3.70;;;23.00;42.60;;;;;;4936242;29;20502;-77
2022/05/17 05:50:34;;;;;;;3.83;3.43;;;23.40;42.00;;;;;;4936797;29;20432;-75
2022/05/17 05:53:02;;;;;;;4.03;3.73;;;22.30;44.40;;;;;;4938202;29;20557;-76
2022/05/17 05:55:29;;;;;;;6.37;3.93;;;21.00;48.30;;;;;;4937138;29;20429;-75
2022/05/17 05:57:57;;;;;;;6.43;4.10;;;21.40;48.00;;;;;;4937286;29;20548;-76
2022/05/17 06:00:24;;;;;;;4.90;4.20;;;21.90;46.60;;;;;;4936356;29;20511;-74
2022/05/17 06:02:51;;;;;;;5.20;4.07;;;22.20;45.10;;;;;;4936837;29;20502;-76
2022/05/17 06:05:19;;;;;;;6.00;3.53;;;21.80;46.60;;;;;;4936473;29;20536;-75
2022/05/17 06:07:47;;;;;;;6.40;3.90;;;22.80;44.30;;;;;;4936480;29;20520;-76
2022/05/17 06:10:14;;;;;;;7.10;3.60;;;23.20;42.80;;;;;;4935838;29;20524;-75
2022/05/17 06:12:41;;;;;;;11.43;3.90;;;23.20;42.60;;;;;;4934684;29;20455;-74
2022/05/17 06:15:11;;;;;;;4.63;4.00;;;22.00;45.80;;;;;;4936636;29;20552;-77
2022/05/17 06:17:39;;;;;;;4.03;3.73;;;21.20;48.50;;;;;;4936026;29;20437;-76
2022/05/17 06:20:07;;;;;;;7.30;3.77;;;21.90;47.00;;;;;;4935951;29;20830;-75
2022/05/17 06:22:35;;;;;;;6.83;3.87;;;21.30;47.70;;;;;;4935606;29;20491;-75
2022/05/17 06:25:02;;;;;;;4.23;3.80;;;21.50;47.60;;;;;;4936000;29;20440;-75
2022/05/17 06:27:29;;;;;;;4.87;3.77;;;21.60;46.90;;;;;;4936020;29;20502;-74
2022/05/17 06:29:56;;;;;;;5.87;3.53;;;22.20;46.10;;;;;;4935377;29;20901;-75
2022/05/17 06:32:24;;;;;;;4.80;3.50;;;23.20;42.80;;;;;;4935471;29;20459;-74
2022/05/17 06:34:51;;;;;;;4.50;3.70;;;23.40;42.00;;;;;;4931855;29;20475;-76
2022/05/17 06:37:18;;;;;;;4.07;3.60;;;22.90;42.30;;;;;;4936027;29;20553;-74
2022/05/17 06:39:45;;;;;;;5.13;3.57;;;22.20;44.50;;;;;;4920259;29;20517;-75
2022/05/17 06:42:12;;;;;;;6.10;4.13;;;22.30;44.60;;;;;;4927618;29;20475;-74
2022/05/17 06:44:40;;;;;;;14.73;3.93;;;22.90;43.90;;;;;;4937783;29;20466;-74
2022/05/17 06:47:07;;;;;;;4.73;3.63;;;24.00;40.60;;;;;;4938805;29;20458;-74
2022/05/17 06:49:39;;;;;;;3.67;3.27;;;23.50;42.10;;;;;;4937665;29;20823;-74
2022/05/17 06:52:08;;;;;;;5.03;3.90;;;23.60;40.60;;;;;;4938249;29;20477;-77
2022/05/17 06:54:35;;;;;;;5.47;3.97;;;23.40;41.30;;;;;;4937690;29;20462;-74
2022/05/17 06:57:04;;;;;;;8.10;3.93;;;23.10;41.70;;;;;;4937620;29;20462;-76
2022/05/17 06:59:32;;;;;;;5.87;4.23;;;22.10;43.70;;;;;;4937256;29;21022;-76
2022/05/17 07:01:59;;;;;;;30.90;6.83;;;21.80;45.00;;;;;;4938383;29;20437;-78
2022/05/17 07:04:27;;;;;;;9.17;4.00;;;21.90;44.50;;;;;;4946566;29;20493;-79
2022/05/17 07:06:55;;;;;;;8.17;4.00;;;21.80;45.50;;;;;;4938666;29;20959;-80
2022/05/17 07:09:23;;;;;;;5.87;4.23;;;22.20;44.40;;;;;;4930736;29;20561;-78
2022/05/17 07:14:34;;;;;;;4.10;3.70;;;23.20;41.80;;;;;;4942639;29;20478;-78
2022/05/17 07:17:01;;;;;;;9.93;4.17;;;23.20;41.90;;;;;;4944006;29;20854;-79
2022/05/17 07:19:28;;;;;;;21.43;5.77;;;23.30;41.90;;;;;;4942727;29;20546;-78
2022/05/17 07:21:56;;;;;;;11.03;4.40;;;23.00;41.60;;;;;;4942783;29;20515;-79
2022/05/17 07:24:23;;;;;;;4.33;3.93;;;23.30;41.90;;;;;;4940235;29;20567;-78
2022/05/17 07:26:50;;;;;;;6.57;4.23;;;23.60;42.20;;;;;;4947075;29;20476;-79
2022/05/17 07:29:17;;;;;;;66.23;7.97;;;23.20;41.80;;;;;;4947816;29;20567;-78
2022/05/17 07:31:44;;;;;;;11.03;5.10;;;22.60;42.60;;;;;;4944630;29;20488;-79
2022/05/17 07:34:10;;;;;;;24.90;5.93;;;22.20;44.20;;;;;;4945428;29;20520;-80
2022/05/17 07:36:37;;;;;;;16.70;4.70;;;22.50;43.60;;;;;;4944273;29;20521;-80
2022/05/17 07:39:06;;;;;;;7.80;4.60;;;22.90;43.60;;;;;;4943758;29;20575;-80
2022/05/17 07:41:33;;;;;;;16.80;5.70;;;23.10;42.20;;;;;;4947218;29;20453;-79
2022/05/17 07:44:00;;;;;;;6.50;4.60;;;22.60;43.70;;;;;;4948436;29;20532;-80
2022/05/17 07:46:26;;;;;;;5.37;4.80;;;22.70;43.90;;;;;;4954730;29;20465;-79
2022/05/17 07:48:53;;;;;;;11.53;4.50;;;22.60;43.90;;;;;;4952010;29;20884;-79
2022/05/17 07:51:20;;;;;;;33.43;7.63;;;23.40;42.00;;;;;;4949319;29;20488;-79
2022/05/17 07:53:47;;;;;;;5.60;4.43;;;23.60;42.20;;;;;;4948511;29;20462;-79
2022/05/17 07:56:16;;;;;;;31.17;7.00;;;23.20;43.40;;;;;;4947346;29;20458;-79
2022/05/17 07:58:43;;;;;;;11.53;5.00;;;23.00;43.50;;;;;;4946688;29;20488;-79
2022/05/17 08:01:10;;;;;;;14.93;5.03;;;23.70;42.30;;;;;;4943217;29;20484;-78
2022/05/17 08:03:37;;;;;;;14.27;5.33;;;24.20;42.60;;;;;;4945261;29;20520;-79
2022/05/17 08:06:04;;;;;;;18.60;6.10;;;23.80;42.30;;;;;;4947383;29;20549;-80
2022/05/17 08:08:32;;;;;;;22.87;5.10;;;23.30;42.50;;;;;;4953609;29;20482;-78
2022/05/17 08:10:59;;;;;;;13.97;6.30;;;23.30;42.80;;;;;;4956574;29;20461;-78
2022/05/17 08:13:27;;;;;;;7.27;5.07;;;24.20;41.90;;;;;;4955248;29;20455;-78
2022/05/17 08:15:54;;;;;;;8.67;4.80;;;25.10;39.30;;;;;;4954097;29;20427;-79
2022/05/17 08:18:21;;;;;;;5.27;3.90;;;25.50;37.50;;;;;;4960773;29;20483;-78
2022/05/17 08:20:48;;;;;;;9.50;4.07;;;25.80;37.80;;;;;;4960400;28;20513;-78
2022/05/17 08:23:16;;;;;;;8.40;3.90;;;26.20;35.00;;;;;;4961425;28;20488;-78
2022/05/17 08:28:28;;;;;;;69.17;6.90;;;25.60;33.50;;;;;;4953525;29;20460;-77
2022/05/17 08:30:55;;;;;;;7.80;3.80;;;25.50;33.50;;;;;;4941076;29;20524;-77
2022/05/17 08:33:23;;;;;;;6.53;2.87;;;25.80;33.70;;;;;;4941989;29;20458;-78
2022/05/17 08:35:54;;;;;;;4.40;3.50;;;26.10;30.80;;;;;;4941760;29;20568;-79
2022/05/17 08:38:23;;;;;;;4.73;3.03;;;26.20;30.90;;;;;;4942789;29;20511;-78
2022/05/17 08:40:57;;;;;;;15.47;4.23;;;25.80;32.30;;;;;;4943459;29;20468;-77
2022/05/17 08:43:29;;;;;;;11.50;4.20;;;26.00;32.00;;;;;;4938464;29;20499;-77
2022/05/17 08:46:21;;;;;;;29.67;4.70;;;25.20;33.80;;;;;;4940140;29;20436;-78
2022/05/17 08:48:53;;;;;;;29.20;5.40;;;24.10;36.00;;;;;;4925741;29;20453;-77
2022/05/17 08:51:29;;;;;;;5.70;3.90;;;24.30;36.10;;;;;;4938983;29;20443;-77
2022/05/17 08:53:56;;;;;;;24.90;5.53;;;24.30;36.30;;;;;;4938544;29;20549;-79
2022/05/17 08:56:25;;;;;;;36.67;5.10;;;24.90;33.00;;;;;;4937932;29;20460;-77
2022/05/17 08:58:55;;;;;;;21.97;4.40;;;25.30;33.30;;;;;;4937942;29;20491;-78
2022/05/17 09:01:28;;;;;;;24.77;5.33;;;24.70;33.40;;;;;;4938071;29;20464;-78
2022/05/17 09:04:13;;;;;;;11.10;4.70;;;23.80;37.20;;;;;;4938572;29;20478;-77
2022/05/17 09:06:50;;;;;;;20.63;4.90;;;24.50;36.00;;;;;;4939184;29;21151;-78
2022/05/17 09:09:24;;;;;;;4.60;3.63;;;24.50;37.00;;;;;;4939433;29;20495;-78
2022/05/17 09:11:56;;;;;;;4.63;3.63;;;24.80;36.30;;;;;;4940074;29;20450;-78
2022/05/17 09:14:28;;;;;;;5.90;4.07;;;25.20;34.10;;;;;;4939103;29;20462;-80
2022/05/17 09:16:59;;;;;;;4.50;3.83;;;25.30;33.30;;;;;;4939085;29;20584;-80
2022/05/17 09:19:26;;;;;;;9.67;4.20;;;25.30;33.30;;;;;;4938978;29;21136;-78
2022/05/17 09:21:58;;;;;;;4.67;3.90;;;24.80;35.30;;;;;;4939344;29;20545;-77
2022/05/17 09:24:29;;;;;;;10.03;3.80;;;25.20;33.20;;;;;;4939865;29;20498;-78
2022/05/17 09:27:04;;;;;;;7.70;4.30;;;24.60;32.80;;;;;;4937518;29;20981;-76
2022/05/17 09:29:38;;;;;;;10.20;3.67;;;24.40;33.60;;;;;;4937875;29;20926;-78
2022/05/17 09:32:07;;;;;;;51.43;6.23;;;25.00;33.10;;;;;;4947879;29;20453;-78
2022/05/17 09:34:36;;;;;;;10.40;4.13;;;24.40;34.00;;;;;;4937572;29;20437;-77
2022/05/17 09:37:07;;;;;;;25.53;4.50;;;24.00;35.00;;;;;;4937510;29;20556;-78
2022/05/17 09:39:34;;;;;;;8.00;3.20;;;24.00;32.80;;;;;;4936203;29;20506;-78
2022/05/17 09:42:02;;;;;;;45.23;5.30;;;24.50;32.90;;;;;;4938001;29;20537;-78
2022/05/17 09:44:33;;;;;;;15.90;4.57;;;24.40;32.60;;;;;;4937083;29;20931;-78
2022/05/17 09:47:06;;;;;;;8.70;3.33;;;24.50;32.70;;;;;;4937341;29;20479;-79
2022/05/17 09:52:35;;;;;;;8.40;3.13;;;25.00;30.50;;;;;;4942368;29;20411;-78
2022/05/17 09:55:21;;;;;;;20.07;4.43;;;25.10;30.80;;;;;;4938383;29;20442;-78
2022/05/17 09:57:57;;;;;;;47.57;5.80;;;25.10;31.00;;;;;;4918636;29;20468;-77
2022/05/17 10:00:27;;;;;;;6.73;3.17;;;25.30;30.20;;;;;;4935028;29;20458;-77
2022/05/17 10:03:00;;;;;;;4.37;3.13;;;25.00;30.30;;;;;;4938272;29;20518;-78
2022/05/17 10:05:30;;;;;;;4.53;3.47;;;25.10;29.90;;;;;;4942664;29;20508;-78
2022/05/17 10:07:59;;;;;;;5.33;3.03;;;25.60;28.80;;;;;;4939779;29;20485;-79
2022/05/17 10:10:33;;;;;;;6.30;2.67;;;25.60;28.50;;;;;;4944925;29;20463;-79
2022/05/17 10:13:09;;;;;;;5.57;2.80;;;25.80;27.90;;;;;;4944849;29;20528;-79
2022/05/17 10:15:39;;;;;;;4.57;3.07;;;26.10;28.30;;;;;;4936136;29;20820;-78
2022/05/17 10:18:29;;;;;;;22.37;4.40;;;26.10;28.10;;;;;;4944889;29;20979;-78
2022/05/17 10:21:00;;;;;;;9.77;3.37;;;25.50;29.80;;;;;;4938427;29;20578;-78
2022/05/17 10:23:35;;;;;;;17.80;4.50;;;25.10;31.00;;;;;;4940109;29;20589;-79
2022/05/17 10:26:07;;;;;;;3.43;2.47;;;24.70;30.30;;;;;;4943972;29;20535;-78
2022/05/17 10:28:40;;;;;;;12.00;3.33;;;25.00;30.70;;;;;;4940567;29;20482;-78
2022/05/17 10:31:19;;;;;;;5.73;3.30;;;25.00;29.80;;;;;;4938223;29;20458;-78
2022/05/17 10:34:11;;;;;;;2.97;2.60;;;24.60;30.60;;;;;;4936360;29;20454;-77
2022/05/17 10:36:43;;;;;;;54.20;6.50;;;25.40;29.20;;;;;;4935761;29;20473;-78
2022/05/17 10:39:24;;;;;;;12.40;4.40;;;25.60;29.00;;;;;;4934415;29;20487;-78
2022/05/17 10:41:51;;;;;;;3.57;3.27;;;25.40;29.40;;;;;;4937007;29;20547;-77
2022/05/17 10:44:21;;;;;;;5.47;2.70;;;26.10;27.70;;;;;;4937792;29;20491;-77
2022/05/17 10:46:54;;;;;;;9.90;3.67;;;26.60;26.90;;;;;;4945108;29;20435;-78
2022/05/17 10:49:33;;;;;;;8.70;3.17;;;26.50;26.40;;;;;;4936958;29;20480;-79
2022/05/17 10:52:10;;;;;;;6.77;3.30;;;26.30;27.20;;;;;;4934290;29;20480;-79
2022/05/17 10:54:49;;;;;;;8.00;3.83;;;25.70;27.00;;;;;;4927017;29;21047;-79
2022/05/17 10:57:24;;;;;;;4.33;2.97;;;26.20;27.60;;;;;;4942830;29;20905;-79
2022/05/17 11:00:00;;;;;;;30.23;4.37;;;26.00;28.80;;;;;;4959181;29;20551;-77
2022/05/17 11:02:40;;;;;;;6.00;3.00;;;25.50;30.30;;;;;;4962671;29;20813;-79
2022/05/17 11:05:21;;;;;;;4.47;3.20;;;25.30;30.20;;;;;;4961179;29;20578;-79
2022/05/17 11:07:59;;;;;;;10.50;3.93;;;25.80;28.60;;;;;;4944527;29;20451;-79
2022/05/17 11:10:36;;;;;;;2.90;2.70;;;25.90;27.90;;;;;;4942018;29;20490;-78
2022/05/17 11:13:11;;;;;;;4.13;3.63;;;25.40;28.20;;;;;;4936993;29;20461;-79
2022/05/17 11:15:41;;;;;;;3.90;3.07;;;25.70;28.30;;;;;;4936739;29;20525;-78
2022/05/17 11:18:17;;;;;;;5.67;3.27;;;25.40;29.00;;;;;;4936512;29;20484;-78
2022/05/17 11:20:52;;;;;;;5.37;3.30;;;25.50;29.00;;;;;;4935626;29;20439;-78
2022/05/17 11:23:48;;;;;;;5.00;2.70;;;25.50;28.70;;;;;;4936624;29;20949;-78
2022/05/17 11:26:48;;;;;;;8.30;3.20;;;25.10;25.50;;;;;;4937804;29;20454;-78
2022/05/17 11:29:34;;;;;;;5.10;2.97;;;25.50;27.80;;;;;;4940430;29;20534;-79
2022/05/17 11:32:15;;;;;;;11.03;3.17;;;25.80;27.60;;;;;;4938766;29;20458;-80
2022/05/17 11:34:43;;;;;;;3.63;2.77;;;25.50;28.70;;;;;;4937516;29;20560;-78
2022/05/17 11:37:49;;;;;;;10.40;3.23;;;25.40;28.90;;;;;;4941106;29;20455;-79
2022/05/17 11:40:58;;;;;;;2.77;2.50;;;25.70;27.90;;;;;;4939783;29;20454;-79
2022/05/17 11:43:46;;;;;;;5.67;2.70;;;26.30;26.70;;;;;;4918128;29;20465;-78
2022/05/17 11:46:55;;;;;;;4.37;2.97;;;26.80;25.30;;;;;;4918404;29;20448;-78
2022/05/17 11:49:41;;;;;;;3.00;2.63;;;25.70;28.30;;;;;;4917961;29;20562;-79
2022/05/17 11:52:29;;;;;;;3.10;2.50;;;25.50;27.30;;;;;;4918763;29;20468;-78
2022/05/17 11:54:59;;;;;;;6.03;3.30;;;25.90;27.60;;;;;;4921117;29;20806;-78
2022/05/17 11:58:03;;;;;;;3.07;2.87;;;25.70;28.80;;;;;;4920872;29;20510;-78
2022/05/17 12:00:47;;;;;;;3.60;3.30;;;25.70;29.90;;;;;;4929640;29;20648;-78
2022/05/17 12:03:40;;;;;;;7.10;3.13;;;25.60;29.80;;;;;;4944692;29;20507;-77
2022/05/17 12:06:10;;;;;;;4.40;2.70;;;26.10;29.00;;;;;;4935596;29;20492;-76
2022/05/17 12:08:43;;;;;;;3.20;3.00;;;26.20;28.50;;;;;;4936155;29;20471;-76
2022/05/17 12:11:25;;;;;;;5.33;2.87;;;26.10;28.20;;;;;;4945406;29;20445;-78
2022/05/17 12:13:55;;;;;;;3.50;2.53;;;26.10;26.90;;;;;;4942195;29;20459;-78
2022/05/17 12:16:25;;;;;;;3.10;2.80;;;25.90;27.80;;;;;;4943146;29;20534;-76
2022/05/17 12:18:57;;;;;;;4.50;2.70;;;25.70;28.20;;;;;;4945387;29;20488;-77
2022/05/17 12:21:40;;;;;;;5.53;2.87;;;25.70;28.30;;;;;;4947751;29;20892;-77
2022/05/17 12:24:21;;;;;;;3.60;2.50;;;26.10;27.70;;;;;;4954387;29;20452;-76
2022/05/17 12:26:56;;;;;;;3.80;2.40;;;26.30;27.60;;;;;;4954190;29;20425;-79
2022/05/17 12:32:11;;;;;;;3.80;2.53;;;26.10;26.00;;;;;;4948822;29;20958;-76
2022/05/17 12:34:38;;;;;;;2.57;2.33;;;26.30;25.30;;;;;;4938836;29;20802;-77
2022/05/17 12:37:11;;;;;;;3.77;2.30;;;26.60;25.30;;;;;;4938489;29;20475;-79
2022/05/17 12:45:13;;;;;;;2.67;2.47;;;26.90;24.70;;;;;;4940385;29;20466;-77
2022/05/17 12:47:47;;;;;;;4.60;2.43;;;27.20;24.60;;;;;;4940761;29;20552;-79
2022/05/17 12:50:17;;;;;;;3.30;2.13;;;27.10;24.00;;;;;;4940876;29;20450;-79
2022/05/17 12:52:46;;;;;;;4.70;2.03;;;26.70;24.70;;;;;;4940902;29;20554;-76
2022/05/17 12:55:20;;;;;;;8.73;2.50;;;26.50;25.10;;;;;;4938564;29;20455;-77
2022/05/17 12:57:47;;;;;;;3.53;2.13;;;26.50;24.80;;;;;;4944148;29;20426;-76
2022/05/17 13:00:17;;;;;;;6.13;1.90;;;26.70;24.50;;;;;;4937354;29;20957;-76
2022/05/17 13:02:46;;;;;;;5.60;2.63;;;26.40;25.00;;;;;;4919063;29;20798;-76
2022/05/17 13:05:27;;;;;;;6.73;2.27;;;26.60;25.10;;;;;;4919245;29;20593;-77
2022/05/17 13:08:08;;;;;;;3.40;1.83;;;26.50;25.10;;;;;;4920569;29;20553;-77
2022/05/17 13:10:38;;;;;;;2.00;1.80;;;26.10;24.90;;;;;;4919595;29;20483;-78
2022/05/17 13:13:17;;;;;;;4.80;1.93;;;26.20;24.90;;;;;;4936790;29;20462;-76
2022/05/17 13:15:47;;;;;;;3.40;1.77;;;26.50;25.10;;;;;;4937068;29;20469;-77
2022/05/17 13:18:16;;;;;;;4.47;2.20;;;26.50;25.10;;;;;;4937386;29;20481;-77